sensor_id;sensor_type;location;lat;lon;timestamp;P1;durP1;ratioP1;P2;durP2;ratioP2
81830;SDS011;71268;44.086;3.070;2023-12-07T00:01:11;18.23;;;9.60;;
81830;SDS011;71268;44.086;3.070;2023-12-07T00:03:37;16.20;;;11.13;;
81830;SDS011;71268;44.086;3.070;2023-12-07T00:06:03;18.88;;;9.38;;
81830;SDS011;71268;44.086;3.070;2023-12-07T00:08:29;17.75;;;9.02;;
81830;SDS011;71268;44.086;3.070;2023-12-07T00:10:55;14.88;;;8.32;;
81830;SDS011;71268;44.086;3.070;2023-12-07T00:13:21;14.00;;;6.93;;
81830;SDS011;71268;44.086;3.070;2023-12-07T00:15:47;14.82;;;7.30;;
81830;SDS011;71268;44.086;3.070;2023-12-07T00:18:13;14.55;;;7.55;;
81830;SDS011;71268;44.086;3.070;2023-12-07T00:20:39;13.73;;;7.55;;
81830;SDS011;71268;44.086;3.070;2023-12-07T00:23:05;16.25;;;7.68;;
81830;SDS011;71268;44.086;3.070;2023-12-07T00:25:31;13.60;;;7.13;;
81830;SDS011;71268;44.086;3.070;2023-12-07T00:27:57;12.75;;;5.93;;
81830;SDS011;71268;44.086;3.070;2023-12-07T00:30:23;9.45;;;5.25;;
81830;SDS011;71268;44.086;3.070;2023-12-07T00:32:49;9.35;;;5.75;;
81830;SDS011;71268;44.086;3.070;2023-12-07T00:35:15;13.30;;;5.47;;
81830;SDS011;71268;44.086;3.070;2023-12-07T00:37:42;13.52;;;7.60;;
81830;SDS011;71268;44.086;3.070;2023-12-07T00:40:09;18.10;;;8.30;;
81830;SDS011;71268;44.086;3.070;2023-12-07T00:42:35;16.55;;;8.18;;
81830;SDS011;71268;44.086;3.070;2023-12-07T00:45:01;17.33;;;9.00;;
81830;SDS011;71268;44.086;3.070;2023-12-07T00:47:27;9.88;;;6.68;;
81830;SDS011;71268;44.086;3.070;2023-12-07T00:49:53;10.65;;;5.65;;
81830;SDS011;71268;44.086;3.070;2023-12-07T00:52:19;10.23;;;5.68;;
81830;SDS011;71268;44.086;3.070;2023-12-07T00:54:45;13.10;;;6.40;;
81830;SDS011;71268;44.086;3.070;2023-12-07T00:57:11;12.35;;;6.13;;
81830;SDS011;71268;44.086;3.070;2023-12-07T00:59:37;11.88;;;6.18;;
81830;SDS011;71268;44.086;3.070;2023-12-07T01:02:03;10.05;;;5.53;;
81830;SDS011;71268;44.086;3.070;2023-12-07T01:04:30;8.52;;;4.57;;
81830;SDS011;71268;44.086;3.070;2023-12-07T01:06:56;7.68;;;3.95;;
81830;SDS011;71268;44.086;3.070;2023-12-07T01:09:22;6.75;;;3.65;;
81830;SDS011;71268;44.086;3.070;2023-12-07T01:11:48;6.65;;;3.13;;
81830;SDS011;71268;44.086;3.070;2023-12-07T01:14:15;7.82;;;2.78;;
81830;SDS011;71268;44.086;3.070;2023-12-07T01:16:41;5.95;;;2.97;;
81830;SDS011;71268;44.086;3.070;2023-12-07T01:19:07;5.63;;;2.85;;
81830;SDS011;71268;44.086;3.070;2023-12-07T01:21:33;6.60;;;2.92;;
81830;SDS011;71268;44.086;3.070;2023-12-07T01:24:00;6.50;;;2.92;;
81830;SDS011;71268;44.086;3.070;2023-12-07T01:26:26;8.02;;;3.53;;
81830;SDS011;71268;44.086;3.070;2023-12-07T01:28:52;5.88;;;2.70;;
81830;SDS011;71268;44.086;3.070;2023-12-07T01:31:18;5.88;;;2.67;;
81830;SDS011;71268;44.086;3.070;2023-12-07T01:33:44;3.45;;;1.88;;
81830;SDS011;71268;44.086;3.070;2023-12-07T01:36:10;6.40;;;1.85;;
81830;SDS011;71268;44.086;3.070;2023-12-07T01:38:36;4.53;;;2.17;;
81830;SDS011;71268;44.086;3.070;2023-12-07T01:41:02;5.95;;;2.38;;
81830;SDS011;71268;44.086;3.070;2023-12-07T01:43:29;5.15;;;2.30;;
81830;SDS011;71268;44.086;3.070;2023-12-07T01:45:56;5.00;;;2.20;;
81830;SDS011;71268;44.086;3.070;2023-12-07T01:48:23;3.83;;;2.08;;
81830;SDS011;71268;44.086;3.070;2023-12-07T01:50:51;4.88;;;2.10;;
81830;SDS011;71268;44.086;3.070;2023-12-07T01:53:17;4.78;;;2.67;;
81830;SDS011;71268;44.086;3.070;2023-12-07T01:55:43;7.13;;;3.53;;
81830;SDS011;71268;44.086;3.070;2023-12-07T01:58:09;6.88;;;3.20;;
81830;SDS011;71268;44.086;3.070;2023-12-07T02:00:35;9.30;;;3.80;;
81830;SDS011;71268;44.086;3.070;2023-12-07T02:03:04;6.93;;;3.25;;
81830;SDS011;71268;44.086;3.070;2023-12-07T02:05:31;7.57;;;3.88;;
81830;SDS011;71268;44.086;3.070;2023-12-07T02:07:57;7.45;;;3.40;;
81830;SDS011;71268;44.086;3.070;2023-12-07T02:10:24;4.95;;;2.97;;
81830;SDS011;71268;44.086;3.070;2023-12-07T02:12:50;7.13;;;3.55;;
81830;SDS011;71268;44.086;3.070;2023-12-07T02:15:18;6.35;;;3.72;;
81830;SDS011;71268;44.086;3.070;2023-12-07T02:20:30;8.32;;;3.55;;
81830;SDS011;71268;44.086;3.070;2023-12-07T02:23:03;7.05;;;3.45;;
81830;SDS011;71268;44.086;3.070;2023-12-07T02:26:03;6.18;;;3.55;;
81830;SDS011;71268;44.086;3.070;2023-12-07T02:28:22;7.18;;;3.55;;
81830;SDS011;71268;44.086;3.070;2023-12-07T02:30:48;5.93;;;2.85;;
81830;SDS011;71268;44.086;3.070;2023-12-07T02:33:14;3.65;;;2.00;;
81830;SDS011;71268;44.086;3.070;2023-12-07T02:35:40;5.00;;;1.50;;
81830;SDS011;71268;44.086;3.070;2023-12-07T02:38:07;5.20;;;2.03;;
81830;SDS011;71268;44.086;3.070;2023-12-07T02:40:33;4.88;;;2.40;;
81830;SDS011;71268;44.086;3.070;2023-12-07T02:43:00;5.50;;;3.45;;
81830;SDS011;71268;44.086;3.070;2023-12-07T02:45:28;10.43;;;3.63;;
81830;SDS011;71268;44.086;3.070;2023-12-07T02:47:54;6.90;;;3.55;;
81830;SDS011;71268;44.086;3.070;2023-12-07T02:50:20;7.75;;;2.97;;
81830;SDS011;71268;44.086;3.070;2023-12-07T02:52:46;6.68;;;3.65;;
81830;SDS011;71268;44.086;3.070;2023-12-07T02:55:12;6.93;;;3.45;;
81830;SDS011;71268;44.086;3.070;2023-12-07T02:57:38;4.53;;;2.45;;
81830;SDS011;71268;44.086;3.070;2023-12-07T03:00:05;6.63;;;3.08;;
81830;SDS011;71268;44.086;3.070;2023-12-07T03:02:35;5.82;;;3.22;;
81830;SDS011;71268;44.086;3.070;2023-12-07T03:05:01;5.85;;;2.92;;
81830;SDS011;71268;44.086;3.070;2023-12-07T03:07:27;7.95;;;3.40;;
81830;SDS011;71268;44.086;3.070;2023-12-07T03:09:53;7.05;;;3.45;;
81830;SDS011;71268;44.086;3.070;2023-12-07T03:12:19;6.55;;;3.10;;
81830;SDS011;71268;44.086;3.070;2023-12-07T03:14:45;6.72;;;2.75;;
81830;SDS011;71268;44.086;3.070;2023-12-07T03:17:11;7.63;;;2.92;;
81830;SDS011;71268;44.086;3.070;2023-12-07T03:19:37;5.22;;;2.83;;
81830;SDS011;71268;44.086;3.070;2023-12-07T03:22:03;6.45;;;2.65;;
81830;SDS011;71268;44.086;3.070;2023-12-07T03:24:31;6.50;;;3.45;;
81830;SDS011;71268;44.086;3.070;2023-12-07T03:26:57;5.50;;;3.17;;
81830;SDS011;71268;44.086;3.070;2023-12-07T03:29:23;3.97;;;2.78;;
81830;SDS011;71268;44.086;3.070;2023-12-07T03:31:49;6.53;;;2.72;;
81830;SDS011;71268;44.086;3.070;2023-12-07T03:34:15;5.20;;;2.65;;
81830;SDS011;71268;44.086;3.070;2023-12-07T03:36:45;9.63;;;3.20;;
81830;SDS011;71268;44.086;3.070;2023-12-07T03:39:11;7.00;;;3.22;;
81830;SDS011;71268;44.086;3.070;2023-12-07T03:41:38;9.90;;;3.97;;
81830;SDS011;71268;44.086;3.070;2023-12-07T03:44:04;7.20;;;3.33;;
81830;SDS011;71268;44.086;3.070;2023-12-07T03:46:30;9.57;;;3.95;;
81830;SDS011;71268;44.086;3.070;2023-12-07T03:48:56;3.60;;;2.00;;
81830;SDS011;71268;44.086;3.070;2023-12-07T03:51:22;3.22;;;1.48;;
81830;SDS011;71268;44.086;3.070;2023-12-07T03:53:48;3.67;;;1.52;;
81830;SDS011;71268;44.086;3.070;2023-12-07T03:56:26;5.15;;;2.10;;
81830;SDS011;71268;44.086;3.070;2023-12-07T03:58:53;7.53;;;3.25;;
81830;SDS011;71268;44.086;3.070;2023-12-07T04:01:22;5.10;;;2.83;;
81830;SDS011;71268;44.086;3.070;2023-12-07T04:03:49;8.40;;;3.60;;
81830;SDS011;71268;44.086;3.070;2023-12-07T04:06:15;5.63;;;3.03;;
81830;SDS011;71268;44.086;3.070;2023-12-07T04:08:42;6.72;;;3.67;;
81830;SDS011;71268;44.086;3.070;2023-12-07T04:11:08;6.03;;;3.13;;
81830;SDS011;71268;44.086;3.070;2023-12-07T04:13:34;9.75;;;3.70;;
81830;SDS011;71268;44.086;3.070;2023-12-07T04:16:00;6.68;;;3.22;;
81830;SDS011;71268;44.086;3.070;2023-12-07T04:18:26;8.60;;;3.38;;
81830;SDS011;71268;44.086;3.070;2023-12-07T04:20:52;6.00;;;3.22;;
81830;SDS011;71268;44.086;3.070;2023-12-07T04:23:18;7.43;;;2.85;;
81830;SDS011;71268;44.086;3.070;2023-12-07T04:25:44;6.05;;;3.45;;
81830;SDS011;71268;44.086;3.070;2023-12-07T04:28:10;5.70;;;3.13;;
81830;SDS011;71268;44.086;3.070;2023-12-07T04:30:36;7.55;;;3.22;;
81830;SDS011;71268;44.086;3.070;2023-12-07T04:33:02;10.35;;;3.72;;
81830;SDS011;71268;44.086;3.070;2023-12-07T04:35:29;6.82;;;3.22;;
81830;SDS011;71268;44.086;3.070;2023-12-07T04:37:56;7.03;;;3.88;;
81830;SDS011;71268;44.086;3.070;2023-12-07T04:40:22;9.35;;;3.83;;
81830;SDS011;71268;44.086;3.070;2023-12-07T04:42:49;6.40;;;3.17;;
81830;SDS011;71268;44.086;3.070;2023-12-07T04:45:15;6.70;;;2.78;;
81830;SDS011;71268;44.086;3.070;2023-12-07T04:47:41;8.50;;;3.58;;
81830;SDS011;71268;44.086;3.070;2023-12-07T04:50:07;6.38;;;3.83;;
81830;SDS011;71268;44.086;3.070;2023-12-07T04:52:34;6.90;;;3.30;;
81830;SDS011;71268;44.086;3.070;2023-12-07T04:55:00;5.82;;;3.63;;
81830;SDS011;71268;44.086;3.070;2023-12-07T04:57:26;8.23;;;3.63;;
81830;SDS011;71268;44.086;3.070;2023-12-07T04:59:52;6.10;;;3.40;;
81830;SDS011;71268;44.086;3.070;2023-12-07T05:02:18;6.00;;;3.20;;
81830;SDS011;71268;44.086;3.070;2023-12-07T05:04:45;7.13;;;2.55;;
81830;SDS011;71268;44.086;3.070;2023-12-07T05:07:14;9.75;;;4.57;;
81830;SDS011;71268;44.086;3.070;2023-12-07T05:09:40;13.02;;;6.45;;
81830;SDS011;71268;44.086;3.070;2023-12-07T05:12:06;14.07;;;7.40;;
81830;SDS011;71268;44.086;3.070;2023-12-07T05:14:32;10.10;;;6.35;;
81830;SDS011;71268;44.086;3.070;2023-12-07T05:17:00;9.70;;;5.40;;
81830;SDS011;71268;44.086;3.070;2023-12-07T05:19:26;9.32;;;5.00;;
81830;SDS011;71268;44.086;3.070;2023-12-07T05:21:52;7.60;;;3.88;;
81830;SDS011;71268;44.086;3.070;2023-12-07T05:24:18;6.95;;;3.67;;
81830;SDS011;71268;44.086;3.070;2023-12-07T05:26:45;6.18;;;2.53;;
81830;SDS011;71268;44.086;3.070;2023-12-07T05:29:11;5.60;;;2.40;;
81830;SDS011;71268;44.086;3.070;2023-12-07T05:31:37;3.97;;;2.38;;
81830;SDS011;71268;44.086;3.070;2023-12-07T05:34:03;4.68;;;1.83;;
81830;SDS011;71268;44.086;3.070;2023-12-07T05:36:30;6.18;;;2.30;;
81830;SDS011;71268;44.086;3.070;2023-12-07T05:38:56;2.95;;;1.55;;
81830;SDS011;71268;44.086;3.070;2023-12-07T05:41:22;3.05;;;1.20;;
81830;SDS011;71268;44.086;3.070;2023-12-07T05:43:48;5.73;;;1.67;;
81830;SDS011;71268;44.086;3.070;2023-12-07T05:46:14;3.10;;;1.55;;
81830;SDS011;71268;44.086;3.070;2023-12-07T05:48:40;3.28;;;1.35;;
81830;SDS011;71268;44.086;3.070;2023-12-07T05:51:11;3.38;;;1.55;;
81830;SDS011;71268;44.086;3.070;2023-12-07T05:53:37;2.85;;;1.30;;
81830;SDS011;71268;44.086;3.070;2023-12-07T05:56:03;4.72;;;2.08;;
81830;SDS011;71268;44.086;3.070;2023-12-07T05:58:29;1.70;;;0.98;;
81830;SDS011;71268;44.086;3.070;2023-12-07T06:00:55;1.40;;;0.60;;
81830;SDS011;71268;44.086;3.070;2023-12-07T06:03:22;1.42;;;0.77;;
81830;SDS011;71268;44.086;3.070;2023-12-07T06:05:48;1.40;;;0.70;;
81830;SDS011;71268;44.086;3.070;2023-12-07T06:08:14;2.97;;;1.00;;
81830;SDS011;71268;44.086;3.070;2023-12-07T06:10:40;2.95;;;1.40;;
81830;SDS011;71268;44.086;3.070;2023-12-07T06:13:06;3.75;;;1.73;;
81830;SDS011;71268;44.086;3.070;2023-12-07T06:15:33;3.88;;;1.58;;
81830;SDS011;71268;44.086;3.070;2023-12-07T06:17:59;6.38;;;2.42;;
81830;SDS011;71268;44.086;3.070;2023-12-07T06:20:25;5.53;;;2.80;;
81830;SDS011;71268;44.086;3.070;2023-12-07T06:22:51;5.00;;;2.70;;
81830;SDS011;71268;44.086;3.070;2023-12-07T06:25:17;6.07;;;2.22;;
81830;SDS011;71268;44.086;3.070;2023-12-07T06:27:44;5.38;;;2.33;;
81830;SDS011;71268;44.086;3.070;2023-12-07T06:30:10;4.57;;;1.77;;
81830;SDS011;71268;44.086;3.070;2023-12-07T06:32:36;7.80;;;1.95;;
81830;SDS011;71268;44.086;3.070;2023-12-07T06:35:02;3.42;;;1.58;;
81830;SDS011;71268;44.086;3.070;2023-12-07T06:37:29;3.83;;;1.45;;
81830;SDS011;71268;44.086;3.070;2023-12-07T06:39:55;3.97;;;1.67;;
81830;SDS011;71268;44.086;3.070;2023-12-07T06:42:21;2.85;;;1.35;;
81830;SDS011;71268;44.086;3.070;2023-12-07T06:44:48;2.55;;;1.30;;
81830;SDS011;71268;44.086;3.070;2023-12-07T06:47:14;1.48;;;0.82;;
81830;SDS011;71268;44.086;3.070;2023-12-07T06:49:40;2.95;;;0.98;;
81830;SDS011;71268;44.086;3.070;2023-12-07T06:52:06;2.25;;;0.98;;
81830;SDS011;71268;44.086;3.070;2023-12-07T06:54:33;3.58;;;1.35;;
81830;SDS011;71268;44.086;3.070;2023-12-07T06:56:59;3.20;;;1.25;;
81830;SDS011;71268;44.086;3.070;2023-12-07T06:59:25;4.68;;;1.48;;
81830;SDS011;71268;44.086;3.070;2023-12-07T07:01:51;5.10;;;1.27;;
81830;SDS011;71268;44.086;3.070;2023-12-07T07:04:17;3.17;;;1.45;;
81830;SDS011;71268;44.086;3.070;2023-12-07T07:06:43;2.70;;;1.63;;
81830;SDS011;71268;44.086;3.070;2023-12-07T07:09:09;3.95;;;1.83;;
81830;SDS011;71268;44.086;3.070;2023-12-07T07:11:37;2.95;;;1.45;;
81830;SDS011;71268;44.086;3.070;2023-12-07T07:14:03;4.00;;;1.95;;
81830;SDS011;71268;44.086;3.070;2023-12-07T07:16:30;3.10;;;1.30;;
81830;SDS011;71268;44.086;3.070;2023-12-07T07:18:56;2.58;;;1.40;;
81830;SDS011;71268;44.086;3.070;2023-12-07T07:21:22;2.65;;;1.27;;
81830;SDS011;71268;44.086;3.070;2023-12-07T07:23:48;3.22;;;1.45;;
81830;SDS011;71268;44.086;3.070;2023-12-07T07:26:14;5.57;;;1.70;;
81830;SDS011;71268;44.086;3.070;2023-12-07T07:28:42;3.00;;;1.55;;
81830;SDS011;71268;44.086;3.070;2023-12-07T07:31:08;4.85;;;1.88;;
81830;SDS011;71268;44.086;3.070;2023-12-07T07:33:34;5.97;;;1.88;;
81830;SDS011;71268;44.086;3.070;2023-12-07T07:36:00;4.47;;;1.55;;
81830;SDS011;71268;44.086;3.070;2023-12-07T07:38:26;1.60;;;0.73;;
81830;SDS011;71268;44.086;3.070;2023-12-07T07:40:52;5.28;;;1.40;;
81830;SDS011;71268;44.086;3.070;2023-12-07T07:43:18;0.98;;;0.47;;
81830;SDS011;71268;44.086;3.070;2023-12-07T07:45:44;3.13;;;0.95;;
81830;SDS011;71268;44.086;3.070;2023-12-07T07:48:11;2.58;;;1.00;;
81830;SDS011;71268;44.086;3.070;2023-12-07T07:50:37;3.28;;;1.80;;
81830;SDS011;71268;44.086;3.070;2023-12-07T07:53:03;6.90;;;2.42;;
81830;SDS011;71268;44.086;3.070;2023-12-07T07:55:29;2.72;;;1.48;;
81830;SDS011;71268;44.086;3.070;2023-12-07T07:57:56;2.75;;;1.30;;
81830;SDS011;71268;44.086;3.070;2023-12-07T08:00:22;4.18;;;2.20;;
81830;SDS011;71268;44.086;3.070;2023-12-07T08:02:51;7.35;;;2.92;;
81830;SDS011;71268;44.086;3.070;2023-12-07T08:05:17;7.45;;;3.30;;
81830;SDS011;71268;44.086;3.070;2023-12-07T08:07:43;8.40;;;3.72;;
81830;SDS011;71268;44.086;3.070;2023-12-07T08:10:09;9.23;;;5.28;;
81830;SDS011;71268;44.086;3.070;2023-12-07T08:12:36;7.57;;;4.10;;
81830;SDS011;71268;44.086;3.070;2023-12-07T08:15:02;8.68;;;4.72;;
81830;SDS011;71268;44.086;3.070;2023-12-07T08:17:28;7.55;;;3.80;;
81830;SDS011;71268;44.086;3.070;2023-12-07T08:19:54;6.10;;;3.53;;
81830;SDS011;71268;44.086;3.070;2023-12-07T08:22:20;3.60;;;2.22;;
81830;SDS011;71268;44.086;3.070;2023-12-07T08:24:47;6.30;;;3.63;;
81830;SDS011;71268;44.086;3.070;2023-12-07T08:27:13;20.80;;;10.30;;
81830;SDS011;71268;44.086;3.070;2023-12-07T08:29:39;20.20;;;9.32;;
81830;SDS011;71268;44.086;3.070;2023-12-07T08:32:05;10.20;;;4.90;;
81830;SDS011;71268;44.086;3.070;2023-12-07T08:34:31;5.30;;;2.22;;
81830;SDS011;71268;44.086;3.070;2023-12-07T08:36:57;5.47;;;2.25;;
81830;SDS011;71268;44.086;3.070;2023-12-07T08:39:23;4.38;;;2.03;;
81830;SDS011;71268;44.086;3.070;2023-12-07T08:41:50;6.68;;;2.88;;
81830;SDS011;71268;44.086;3.070;2023-12-07T08:44:16;21.52;;;9.80;;
81830;SDS011;71268;44.086;3.070;2023-12-07T08:46:42;29.35;;;15.52;;
81830;SDS011;71268;44.086;3.070;2023-12-07T08:49:10;28.77;;;12.20;;
81830;SDS011;71268;44.086;3.070;2023-12-07T08:51:36;17.20;;;9.10;;
81830;SDS011;71268;44.086;3.070;2023-12-07T08:54:02;13.95;;;7.47;;
81830;SDS011;71268;44.086;3.070;2023-12-07T08:56:30;12.80;;;6.53;;
81830;SDS011;71268;44.086;3.070;2023-12-07T08:58:56;14.32;;;7.03;;
81830;SDS011;71268;44.086;3.070;2023-12-07T09:01:22;17.42;;;8.73;;
81830;SDS011;71268;44.086;3.070;2023-12-07T09:03:48;18.50;;;9.15;;
81830;SDS011;71268;44.086;3.070;2023-12-07T09:06:14;17.90;;;9.30;;
81830;SDS011;71268;44.086;3.070;2023-12-07T09:08:40;16.48;;;8.15;;
81830;SDS011;71268;44.086;3.070;2023-12-07T09:11:06;12.00;;;6.05;;
81830;SDS011;71268;44.086;3.070;2023-12-07T09:13:32;10.85;;;6.90;;
81830;SDS011;71268;44.086;3.070;2023-12-07T09:15:58;8.43;;;5.65;;
81830;SDS011;71268;44.086;3.070;2023-12-07T09:18:24;9.98;;;5.75;;
81830;SDS011;71268;44.086;3.070;2023-12-07T09:20:50;12.93;;;7.93;;
81830;SDS011;71268;44.086;3.070;2023-12-07T09:23:16;14.05;;;9.02;;
81830;SDS011;71268;44.086;3.070;2023-12-07T09:25:43;12.48;;;8.18;;
81830;SDS011;71268;44.086;3.070;2023-12-07T09:28:09;15.55;;;10.07;;
81830;SDS011;71268;44.086;3.070;2023-12-07T09:30:35;21.02;;;11.85;;
81830;SDS011;71268;44.086;3.070;2023-12-07T09:33:01;15.43;;;10.52;;
81830;SDS011;71268;44.086;3.070;2023-12-07T09:35:30;20.08;;;11.70;;
81830;SDS011;71268;44.086;3.070;2023-12-07T09:37:59;15.07;;;9.02;;
81830;SDS011;71268;44.086;3.070;2023-12-07T09:40:25;14.88;;;9.57;;
81830;SDS011;71268;44.086;3.070;2023-12-07T09:42:52;11.30;;;7.85;;
81830;SDS011;71268;44.086;3.070;2023-12-07T09:45:19;7.80;;;5.38;;
81830;SDS011;71268;44.086;3.070;2023-12-07T09:47:51;7.18;;;3.95;;
81830;SDS011;71268;44.086;3.070;2023-12-07T09:50:18;8.13;;;4.15;;
81830;SDS011;71268;44.086;3.070;2023-12-07T09:52:47;6.45;;;3.28;;
81830;SDS011;71268;44.086;3.070;2023-12-07T09:55:14;8.52;;;4.60;;
81830;SDS011;71268;44.086;3.070;2023-12-07T09:57:41;10.00;;;5.93;;
81830;SDS011;71268;44.086;3.070;2023-12-07T10:00:08;11.88;;;5.53;;
81830;SDS011;71268;44.086;3.070;2023-12-07T10:02:39;5.88;;;2.88;;
81830;SDS011;71268;44.086;3.070;2023-12-07T10:05:06;2.22;;;1.30;;
81830;SDS011;71268;44.086;3.070;2023-12-07T10:07:35;2.10;;;1.02;;
81830;SDS011;71268;44.086;3.070;2023-12-07T10:10:02;2.83;;;1.20;;
81830;SDS011;71268;44.086;3.070;2023-12-07T10:12:29;2.58;;;1.20;;
81830;SDS011;71268;44.086;3.070;2023-12-07T10:14:55;3.70;;;1.90;;
81830;SDS011;71268;44.086;3.070;2023-12-07T10:17:21;5.28;;;1.38;;
81830;SDS011;71268;44.086;3.070;2023-12-07T10:20:06;2.88;;;1.50;;
81830;SDS011;71268;44.086;3.070;2023-12-07T10:22:38;3.33;;;0.98;;
81830;SDS011;71268;44.086;3.070;2023-12-07T10:25:04;3.00;;;1.38;;
81830;SDS011;71268;44.086;3.070;2023-12-07T10:27:30;2.45;;;1.30;;
81830;SDS011;71268;44.086;3.070;2023-12-07T10:29:58;2.10;;;1.00;;
81830;SDS011;71268;44.086;3.070;2023-12-07T10:32:25;3.03;;;1.52;;
81830;SDS011;71268;44.086;3.070;2023-12-07T10:34:52;4.15;;;1.50;;
81830;SDS011;71268;44.086;3.070;2023-12-07T10:37:18;3.45;;;1.42;;
81830;SDS011;71268;44.086;3.070;2023-12-07T10:39:44;2.88;;;1.60;;
81830;SDS011;71268;44.086;3.070;2023-12-07T10:42:10;4.65;;;1.60;;
81830;SDS011;71268;44.086;3.070;2023-12-07T10:44:40;4.38;;;1.65;;
81830;SDS011;71268;44.086;3.070;2023-12-07T10:47:07;4.95;;;1.80;;
81830;SDS011;71268;44.086;3.070;2023-12-07T10:49:35;3.92;;;2.17;;
81830;SDS011;71268;44.086;3.070;2023-12-07T10:52:03;3.50;;;1.48;;
81830;SDS011;71268;44.086;3.070;2023-12-07T10:54:38;2.42;;;0.90;;
81830;SDS011;71268;44.086;3.070;2023-12-07T10:57:05;3.75;;;0.95;;
81830;SDS011;71268;44.086;3.070;2023-12-07T10:59:31;3.15;;;1.15;;
81830;SDS011;71268;44.086;3.070;2023-12-07T11:01:58;1.83;;;0.75;;
81830;SDS011;71268;44.086;3.070;2023-12-07T11:04:24;4.43;;;1.20;;
81830;SDS011;71268;44.086;3.070;2023-12-07T11:06:50;3.03;;;1.40;;
81830;SDS011;71268;44.086;3.070;2023-12-07T11:09:21;3.20;;;1.20;;
81830;SDS011;71268;44.086;3.070;2023-12-07T11:11:52;5.18;;;1.90;;
81830;SDS011;71268;44.086;3.070;2023-12-07T11:14:20;5.60;;;2.30;;
81830;SDS011;71268;44.086;3.070;2023-12-07T11:16:46;5.05;;;2.20;;
81830;SDS011;71268;44.086;3.070;2023-12-07T11:21:57;4.65;;;1.70;;
81830;SDS011;71268;44.086;3.070;2023-12-07T11:24:24;4.15;;;1.60;;
81830;SDS011;71268;44.086;3.070;2023-12-07T11:26:53;2.80;;;1.40;;
81830;SDS011;71268;44.086;3.070;2023-12-07T11:29:20;3.00;;;1.02;;
81830;SDS011;71268;44.086;3.070;2023-12-07T11:31:48;3.97;;;1.15;;
81830;SDS011;71268;44.086;3.070;2023-12-07T11:34:33;2.88;;;1.70;;
81830;SDS011;71268;44.086;3.070;2023-12-07T11:36:59;4.05;;;1.52;;
81830;SDS011;71268;44.086;3.070;2023-12-07T11:39:25;2.35;;;1.27;;
81830;SDS011;71268;44.086;3.070;2023-12-07T11:41:53;2.15;;;0.93;;
81830;SDS011;71268;44.086;3.070;2023-12-07T11:44:23;3.10;;;1.35;;
81830;SDS011;71268;44.086;3.070;2023-12-07T11:46:50;4.50;;;2.33;;
81830;SDS011;71268;44.086;3.070;2023-12-07T11:49:16;5.25;;;2.72;;
81830;SDS011;71268;44.086;3.070;2023-12-07T11:51:42;6.65;;;3.72;;
81830;SDS011;71268;44.086;3.070;2023-12-07T11:54:08;5.82;;;3.72;;
81830;SDS011;71268;44.086;3.070;2023-12-07T11:56:36;3.83;;;2.42;;
81830;SDS011;71268;44.086;3.070;2023-12-07T11:59:02;7.55;;;3.92;;
81830;SDS011;71268;44.086;3.070;2023-12-07T12:01:28;6.47;;;4.43;;
81830;SDS011;71268;44.086;3.070;2023-12-07T12:03:55;5.50;;;2.72;;
81830;SDS011;71268;44.086;3.070;2023-12-07T12:06:23;6.63;;;2.67;;
81830;SDS011;71268;44.086;3.070;2023-12-07T12:08:49;5.70;;;2.40;;
81830;SDS011;71268;44.086;3.070;2023-12-07T12:11:15;4.10;;;2.28;;
81830;SDS011;71268;44.086;3.070;2023-12-07T12:13:41;3.85;;;2.10;;
81830;SDS011;71268;44.086;3.070;2023-12-07T12:16:07;5.10;;;1.63;;
81830;SDS011;71268;44.086;3.070;2023-12-07T12:18:33;3.90;;;2.03;;
81830;SDS011;71268;44.086;3.070;2023-12-07T12:20:59;4.50;;;1.17;;
81830;SDS011;71268;44.086;3.070;2023-12-07T12:23:25;5.75;;;2.50;;
81830;SDS011;71268;44.086;3.070;2023-12-07T12:25:51;4.30;;;2.03;;
81830;SDS011;71268;44.086;3.070;2023-12-07T12:28:18;4.25;;;1.77;;
81830;SDS011;71268;44.086;3.070;2023-12-07T12:30:46;5.05;;;1.48;;
81830;SDS011;71268;44.086;3.070;2023-12-07T12:33:13;4.68;;;1.30;;
81830;SDS011;71268;44.086;3.070;2023-12-07T12:35:39;3.08;;;1.25;;
81830;SDS011;71268;44.086;3.070;2023-12-07T12:38:09;2.53;;;1.33;;
81830;SDS011;71268;44.086;3.070;2023-12-07T12:40:38;3.55;;;1.48;;
81830;SDS011;71268;44.086;3.070;2023-12-07T12:43:06;4.10;;;1.63;;
81830;SDS011;71268;44.086;3.070;2023-12-07T12:45:33;2.70;;;1.50;;
81830;SDS011;71268;44.086;3.070;2023-12-07T12:47:59;5.28;;;1.88;;
81830;SDS011;71268;44.086;3.070;2023-12-07T12:53:09;3.97;;;1.92;;
81830;SDS011;71268;44.086;3.070;2023-12-07T12:55:39;2.65;;;1.40;;
81830;SDS011;71268;44.086;3.070;2023-12-07T12:58:06;5.07;;;2.03;;
81830;SDS011;71268;44.086;3.070;2023-12-07T13:00:33;5.10;;;1.70;;
81830;SDS011;71268;44.086;3.070;2023-12-07T13:03:00;5.60;;;2.00;;
81830;SDS011;71268;44.086;3.070;2023-12-07T13:05:26;6.03;;;2.40;;
81830;SDS011;71268;44.086;3.070;2023-12-07T13:07:52;3.78;;;2.10;;
81830;SDS011;71268;44.086;3.070;2023-12-07T13:10:18;5.07;;;2.10;;
81830;SDS011;71268;44.086;3.070;2023-12-07T13:12:45;5.45;;;2.03;;
81830;SDS011;71268;44.086;3.070;2023-12-07T13:15:12;7.30;;;2.10;;
81830;SDS011;71268;44.086;3.070;2023-12-07T13:17:39;3.45;;;1.75;;
81830;SDS011;71268;44.086;3.070;2023-12-07T13:20:06;5.75;;;2.05;;
81830;SDS011;71268;44.086;3.070;2023-12-07T13:22:36;4.72;;;1.73;;
81830;SDS011;71268;44.086;3.070;2023-12-07T13:25:02;3.25;;;1.73;;
81830;SDS011;71268;44.086;3.070;2023-12-07T13:27:29;3.03;;;1.55;;
81830;SDS011;71268;44.086;3.070;2023-12-07T13:29:55;3.80;;;1.60;;
81830;SDS011;71268;44.086;3.070;2023-12-07T13:32:21;4.00;;;1.50;;
81830;SDS011;71268;44.086;3.070;2023-12-07T13:34:48;4.60;;;1.98;;
81830;SDS011;71268;44.086;3.070;2023-12-07T13:37:14;3.13;;;1.42;;
81830;SDS011;71268;44.086;3.070;2023-12-07T13:39:40;2.90;;;1.63;;
81830;SDS011;71268;44.086;3.070;2023-12-07T13:42:08;3.38;;;1.30;;
81830;SDS011;71268;44.086;3.070;2023-12-07T13:44:35;3.97;;;1.60;;
81830;SDS011;71268;44.086;3.070;2023-12-07T13:47:01;6.20;;;1.63;;
81830;SDS011;71268;44.086;3.070;2023-12-07T13:49:28;5.13;;;2.22;;
81830;SDS011;71268;44.086;3.070;2023-12-07T13:51:54;4.53;;;1.80;;
81830;SDS011;71268;44.086;3.070;2023-12-07T13:54:20;4.00;;;1.98;;
81830;SDS011;71268;44.086;3.070;2023-12-07T13:56:47;7.38;;;2.20;;
81830;SDS011;71268;44.086;3.070;2023-12-07T13:59:13;3.83;;;1.60;;
81830;SDS011;71268;44.086;3.070;2023-12-07T14:01:39;4.43;;;2.00;;
81830;SDS011;71268;44.086;3.070;2023-12-07T14:04:06;3.55;;;1.88;;
81830;SDS011;71268;44.086;3.070;2023-12-07T14:06:32;4.00;;;2.10;;
81830;SDS011;71268;44.086;3.070;2023-12-07T14:09:00;5.60;;;2.17;;
81830;SDS011;71268;44.086;3.070;2023-12-07T14:11:26;5.38;;;1.77;;
81830;SDS011;71268;44.086;3.070;2023-12-07T14:13:53;3.65;;;1.60;;
81830;SDS011;71268;44.086;3.070;2023-12-07T14:16:19;3.83;;;1.42;;
81830;SDS011;71268;44.086;3.070;2023-12-07T14:18:46;4.10;;;1.80;;
81830;SDS011;71268;44.086;3.070;2023-12-07T14:21:12;3.55;;;1.67;;
81830;SDS011;71268;44.086;3.070;2023-12-07T14:23:41;3.35;;;1.38;;
81830;SDS011;71268;44.086;3.070;2023-12-07T14:26:07;3.22;;;1.50;;
81830;SDS011;71268;44.086;3.070;2023-12-07T14:28:35;3.95;;;1.80;;
81830;SDS011;71268;44.086;3.070;2023-12-07T14:31:02;3.00;;;1.55;;
81830;SDS011;71268;44.086;3.070;2023-12-07T14:33:29;3.78;;;2.10;;
81830;SDS011;71268;44.086;3.070;2023-12-07T14:35:55;4.18;;;1.85;;
81830;SDS011;71268;44.086;3.070;2023-12-07T14:38:21;4.72;;;2.03;;
81830;SDS011;71268;44.086;3.070;2023-12-07T14:40:49;3.42;;;1.60;;
81830;SDS011;71268;44.086;3.070;2023-12-07T14:43:15;4.28;;;2.42;;
81830;SDS011;71268;44.086;3.070;2023-12-07T14:45:41;3.72;;;1.45;;
81830;SDS011;71268;44.086;3.070;2023-12-07T14:48:08;5.22;;;2.13;;
81830;SDS011;71268;44.086;3.070;2023-12-07T14:50:34;5.05;;;2.67;;